createdAt,value
2022-09-25T00:02:05.182Z,100.00
2022-09-25T00:04:32.629Z,100.00
2022-09-25T00:07:00.333Z,100.00
2022-09-25T00:09:27.826Z,100.00
2022-09-25T00:11:55.278Z,100.00
2022-09-25T00:14:23.214Z,100.00
2022-09-25T00:16:50.990Z,100.00
2022-09-25T00:19:40.645Z,100.00
2022-09-25T00:22:08.453Z,100.00
2022-09-25T00:24:35.895Z,100.00
2022-09-25T00:27:03.620Z,100.00
2022-09-25T00:29:31.180Z,100.00
2022-09-25T00:31:58.798Z,100.00
2022-09-25T00:34:26.276Z,100.00
2022-09-25T00:36:53.843Z,100.00
2022-09-25T00:39:21.328Z,100.00
2022-09-25T00:41:48.852Z,100.00
2022-09-25T00:44:35.288Z,100.00
2022-09-25T00:47:03.534Z,100.00
2022-09-25T00:49:31.009Z,100.00
2022-09-25T00:51:59.939Z,100.00
2022-09-25T00:54:31.660Z,100.00
2022-09-25T00:57:01.401Z,100.00
2022-09-25T00:59:30.168Z,100.00
2022-09-25T01:01:58.202Z,100.00
2022-09-25T01:04:25.991Z,100.00
2022-09-25T01:06:54.884Z,100.00
2022-09-25T01:09:22.284Z,100.00
2022-09-25T01:11:49.909Z,100.00
2022-09-25T01:14:17.459Z,100.00
2022-09-25T01:16:47.024Z,100.00
2022-09-25T01:19:23.778Z,100.00
2022-09-25T01:22:03.839Z,100.00
2022-09-25T01:24:39.021Z,100.00
2022-09-25T01:27:37.687Z,100.00
2022-09-25T01:30:08.053Z,100.00
2022-09-25T01:32:51.768Z,100.00
2022-09-25T01:35:35.710Z,100.00
2022-09-25T01:38:03.173Z,100.00
2022-09-25T01:40:33.657Z,100.00
2022-09-25T01:43:14.891Z,100.00
2022-09-25T01:45:47.290Z,100.00
2022-09-25T01:48:15.178Z,100.00
2022-09-25T01:50:53.609Z,100.00
2022-09-25T01:53:22.897Z,100.00
2022-09-25T01:55:54.842Z,100.00
2022-09-25T01:58:25.455Z,100.00
2022-09-25T02:01:06.858Z,100.00
2022-09-25T02:03:39.267Z,100.00
2022-09-25T02:06:07.197Z,100.00
2022-09-25T02:08:36.206Z,100.00
2022-09-25T02:11:06.582Z,100.00
2022-09-25T02:13:50.729Z,100.00
2022-09-25T02:16:28.490Z,100.00
2022-09-25T02:19:14.615Z,100.00
2022-09-25T02:21:54.534Z,100.00
2022-09-25T02:24:25.260Z,100.00
2022-09-25T02:26:52.937Z,100.00
2022-09-25T02:29:20.645Z,100.00
2022-09-25T02:31:48.153Z,100.00
2022-09-25T02:34:15.629Z,100.00
2022-09-25T02:36:43.961Z,100.00
2022-09-25T02:39:11.373Z,100.00
2022-09-25T02:41:54.907Z,100.00
2022-09-25T02:44:28.159Z,100.00
2022-09-25T02:47:08.146Z,100.00
2022-09-25T02:49:40.851Z,100.00
2022-09-25T02:52:12.250Z,100.00
2022-09-25T02:54:42.052Z,100.00
2022-09-25T02:57:12.913Z,100.00
2022-09-25T02:59:43.510Z,100.00
2022-09-25T03:02:11.889Z,100.00
2022-09-25T03:04:39.830Z,100.00
2022-09-25T03:07:07.825Z,100.00
2022-09-25T03:09:36.950Z,100.00
2022-09-25T03:12:07.349Z,100.00
2022-09-25T03:14:35.527Z,100.00
2022-09-25T03:17:03.947Z,100.00
2022-09-25T03:19:32.025Z,100.00
2022-09-25T03:21:59.492Z,100.00
2022-09-25T03:24:26.930Z,100.00
2022-09-25T03:26:54.437Z,100.00
2022-09-25T03:29:22.869Z,100.00
2022-09-25T03:31:50.354Z,100.00
2022-09-25T03:34:18.293Z,100.00
2022-09-25T03:36:47.769Z,100.00
2022-09-25T03:39:15.679Z,100.00
2022-09-25T03:41:44.189Z,100.00
2022-09-25T03:44:11.982Z,100.00
2022-09-25T03:46:39.610Z,100.00
2022-09-25T03:49:07.771Z,100.00
2022-09-25T03:51:35.404Z,100.00
2022-09-25T03:54:04.304Z,100.00
2022-09-25T03:56:32.779Z,100.00
2022-09-25T03:59:00.272Z,100.00
2022-09-25T04:01:28.779Z,100.00
2022-09-25T04:03:56.581Z,100.00
2022-09-25T04:06:25.753Z,100.00
2022-09-25T04:08:53.357Z,100.00
2022-09-25T04:11:21.294Z,100.00
2022-09-25T04:13:48.982Z,100.00
2022-09-25T04:16:19.558Z,100.00
2022-09-25T04:18:47.218Z,100.00
2022-09-25T04:21:14.659Z,100.00
2022-09-25T04:23:43.047Z,100.00
2022-09-25T04:26:10.479Z,100.00
2022-09-25T04:28:37.922Z,100.00
2022-09-25T04:31:05.678Z,100.00
2022-09-25T04:33:48.384Z,100.00
2022-09-25T04:36:16.480Z,100.00
2022-09-25T04:38:44.327Z,100.00
2022-09-25T04:41:12.228Z,100.00
2022-09-25T04:43:42.901Z,100.00
2022-09-25T04:46:14.229Z,100.00
2022-09-25T04:48:45.429Z,100.00
2022-09-25T04:51:12.946Z,100.00
2022-09-25T04:53:41.061Z,100.00
2022-09-25T04:56:13.956Z,100.00
2022-09-25T04:58:46.477Z,100.00
2022-09-25T05:01:14.023Z,100.00
2022-09-25T05:03:41.668Z,100.00
2022-09-25T05:06:09.235Z,100.00
2022-09-25T05:08:36.727Z,100.00
2022-09-25T05:11:04.452Z,100.00
2022-09-25T05:13:32.045Z,100.00
2022-09-25T05:15:59.810Z,100.00
2022-09-25T05:18:27.305Z,100.00
2022-09-25T05:20:55.290Z,100.00
2022-09-25T05:23:24.166Z,100.00
2022-09-25T05:25:55.460Z,100.00
2022-09-25T05:28:23.694Z,100.00
2022-09-25T05:30:51.446Z,100.00
2022-09-25T05:33:21.747Z,100.00
2022-09-25T05:35:49.489Z,100.00
2022-09-25T05:38:17.469Z,100.00
2022-09-25T05:40:45.158Z,100.00
2022-09-25T05:43:12.819Z,100.00
2022-09-25T05:45:40.417Z,100.00
2022-09-25T05:48:08.190Z,100.00
2022-09-25T05:50:36.404Z,100.00
2022-09-25T05:53:04.542Z,100.00
2022-09-25T05:55:32.438Z,100.00
2022-09-25T05:58:00.738Z,100.00
2022-09-25T06:00:28.350Z,100.00
2022-09-25T06:02:55.702Z,100.00
2022-09-25T06:05:23.112Z,99.80
2022-09-25T06:07:56.692Z,100.00
2022-09-25T06:10:27.793Z,99.18
2022-09-25T06:13:01.483Z,99.14
2022-09-25T06:15:36.913Z,100.00
2022-09-25T06:18:08.818Z,99.39
2022-09-25T06:20:36.663Z,99.41
2022-09-25T06:23:03.997Z,98.20
2022-09-25T06:25:32.678Z,96.41
2022-09-25T06:28:00.505Z,94.58
2022-09-25T06:30:31.126Z,94.07
2022-09-25T06:32:58.546Z,95.07
2022-09-25T06:35:26.170Z,93.76
2022-09-25T06:37:56.644Z,94.01
2022-09-25T06:40:24.715Z,93.17
2022-09-25T06:42:55.644Z,90.93
2022-09-25T06:45:23.133Z,90.90
2022-09-25T06:47:50.632Z,90.60
2022-09-25T06:50:18.034Z,90.24
2022-09-25T06:52:46.223Z,89.18
2022-09-25T06:55:13.776Z,89.97
2022-09-25T06:57:41.106Z,89.38
2022-09-25T07:00:08.888Z,87.29
2022-09-25T07:02:55.091Z,87.64
2022-09-25T07:05:22.604Z,88.49
2022-09-25T07:07:50.004Z,87.67
2022-09-25T07:10:17.508Z,87.77
2022-09-25T07:12:45.068Z,87.43
2022-09-25T07:15:12.613Z,85.56
2022-09-25T07:17:43.367Z,86.31
2022-09-25T07:20:12.815Z,87.91
2022-09-25T07:22:40.253Z,80.04
2022-09-25T07:25:07.861Z,63.61
2022-09-25T07:27:35.316Z,49.90
2022-09-25T07:30:03.300Z,43.19
2022-09-25T07:32:31.861Z,38.25
2022-09-25T07:34:59.353Z,38.17
2022-09-25T07:37:26.790Z,36.47
2022-09-25T07:40:01.548Z,34.06
2022-09-25T12:41:58.078Z,41.57
2022-09-25T12:44:35.642Z,42.01
2022-09-25T12:47:04.672Z,41.88
2022-09-25T12:49:37.361Z,41.27
2022-09-25T12:52:11.710Z,40.71
2022-09-25T12:54:47.937Z,41.50
2022-09-25T12:57:18.199Z,40.79
2022-09-25T12:59:49.601Z,42.55
2022-09-25T13:02:28.500Z,41.73
2022-09-25T13:04:55.997Z,42.28
2022-09-25T13:07:41.503Z,42.23
2022-09-25T13:10:28.975Z,42.89
2022-09-25T13:12:58.605Z,42.34
2022-09-25T13:15:30.542Z,42.38
2022-09-25T13:17:59.296Z,43.31
2022-09-25T13:20:26.548Z,43.57
2022-09-25T13:22:57.539Z,43.63
2022-09-25T13:25:25.538Z,43.21
2022-09-25T13:27:54.266Z,44.54
2022-09-25T13:30:22.010Z,44.39
2022-09-25T13:32:50.452Z,44.18
2022-09-25T13:35:19.777Z,44.52
2022-09-25T13:37:47.477Z,45.31
2022-09-25T13:40:40.190Z,44.82
2022-09-25T13:43:18.496Z,45.38
2022-09-25T13:45:45.967Z,45.69
2022-09-25T13:48:15.792Z,45.25
2022-09-25T13:50:44.205Z,44.55
2022-09-25T13:53:17.736Z,45.34
2022-09-25T13:55:48.208Z,45.85
2022-09-25T13:58:19.117Z,45.30
2022-09-25T14:00:50.398Z,45.41
2022-09-25T14:03:32.437Z,45.69
2022-09-25T14:06:00.141Z,45.80
2022-09-25T14:08:28.179Z,45.86
2022-09-25T14:10:55.951Z,45.83
2022-09-25T14:13:25.354Z,46.19
2022-09-25T14:15:54.958Z,45.99
2022-09-25T14:18:24.644Z,46.90
2022-09-25T14:20:52.382Z,46.38
2022-09-25T14:23:24.517Z,47.05
2022-09-25T14:25:58.424Z,47.15
2022-09-25T14:28:27.117Z,47.52
2022-09-25T14:31:14.831Z,47.83
2022-09-25T14:33:49.420Z,48.51
2022-09-25T14:36:26.937Z,48.11
2022-09-25T14:39:01.313Z,48.24
2022-09-25T14:41:41.945Z,48.73
2022-09-25T14:44:27.929Z,49.55
2022-09-25T14:46:55.371Z,49.88
2022-09-25T14:49:24.089Z,49.63
2022-09-25T14:51:51.517Z,49.76
2022-09-25T14:54:19.772Z,50.33
2022-09-25T14:56:50.427Z,49.13
2022-09-25T14:59:19.688Z,49.79
2022-09-25T15:01:49.677Z,49.89
2022-09-25T15:04:30.351Z,50.93
2022-09-25T15:07:01.943Z,50.52
2022-09-25T15:09:29.658Z,49.51
2022-09-25T15:11:56.972Z,50.41
2022-09-25T15:14:24.731Z,50.06
2022-09-25T15:17:10.713Z,49.26
2022-09-25T15:19:40.270Z,49.21
2022-09-25T15:22:11.662Z,49.53
2022-09-25T15:24:39.671Z,50.30
2022-09-25T15:27:07.089Z,50.60
2022-09-25T15:29:38.322Z,50.22
2022-09-25T15:32:06.557Z,50.65
2022-09-25T15:34:34.117Z,51.16
2022-09-25T15:37:25.988Z,51.20
2022-09-25T15:39:53.537Z,50.77
2022-09-25T15:42:22.233Z,50.54
2022-09-25T15:44:49.764Z,50.58
2022-09-25T15:47:35.215Z,51.32
2022-09-25T15:50:06.402Z,51.68
2022-09-25T15:52:34.707Z,52.59
2022-09-25T15:55:03.294Z,53.03
2022-09-25T15:57:30.881Z,53.81
2022-09-25T16:00:17.023Z,54.11
2022-09-25T16:03:15.239Z,53.89
2022-09-25T16:05:45.113Z,53.68
2022-09-25T16:08:15.653Z,54.33
2022-09-25T16:10:49.070Z,55.17
2022-09-25T16:13:20.833Z,55.18
2022-09-25T16:15:51.966Z,55.68
2022-09-25T16:18:19.437Z,56.30
2022-09-25T16:20:47.065Z,55.77
2022-09-25T16:23:20.919Z,56.56
2022-09-25T16:25:48.236Z,55.80
2022-09-25T16:28:17.533Z,56.56
2022-09-25T16:30:57.121Z,56.49
2022-09-25T16:33:29.107Z,58.42
2022-09-25T16:36:13.093Z,56.86
2022-09-25T16:39:04.568Z,56.20
2022-09-25T16:41:32.473Z,56.38
2022-09-25T16:44:14.104Z,56.95
2022-09-25T16:46:42.288Z,56.73
2022-09-25T16:49:09.822Z,57.26
2022-09-25T16:51:37.191Z,56.78
2022-09-25T16:54:08.211Z,55.82
2022-09-25T16:56:35.517Z,56.29
2022-09-25T16:59:02.856Z,57.13
2022-09-25T17:01:30.414Z,58.62
2022-09-25T17:04:00.081Z,57.83
2022-09-25T17:06:29.262Z,58.51
2022-09-25T17:08:56.853Z,58.29
2022-09-25T17:11:24.383Z,59.52
2022-09-25T17:13:52.129Z,58.56
2022-09-25T17:16:19.581Z,57.89
2022-09-25T17:18:47.006Z,57.95
2022-09-25T17:21:15.231Z,58.14
2022-09-25T17:23:43.075Z,60.39
2022-09-25T17:26:23.395Z,58.65
2022-09-25T17:28:51.318Z,58.03
2022-09-25T17:31:20.325Z,58.49
2022-09-25T17:33:49.579Z,58.14
2022-09-25T17:36:16.899Z,58.15
2022-09-25T17:38:44.997Z,58.67
2022-09-25T17:41:17.632Z,58.75
2022-09-25T17:43:46.591Z,58.08
2022-09-25T17:46:19.141Z,58.21
2022-09-25T17:48:51.578Z,58.24
2022-09-25T17:51:26.481Z,58.52
2022-09-25T17:53:54.432Z,59.71
2022-09-25T17:56:22.268Z,59.12
2022-09-25T17:58:51.266Z,59.12
2022-09-25T18:01:22.557Z,59.41
2022-09-25T18:03:52.155Z,59.60
2022-09-25T18:06:23.165Z,60.01
2022-09-25T18:08:51.220Z,59.43
2022-09-25T18:11:20.856Z,59.79
2022-09-25T18:13:54.505Z,59.26
2022-09-25T18:16:23.477Z,59.88
2022-09-25T18:19:10.319Z,58.79
2022-09-25T18:21:56.635Z,59.31
2022-09-25T18:24:24.723Z,58.87
2022-09-25T18:26:52.724Z,58.91
2022-09-25T18:29:20.894Z,58.92
2022-09-25T18:31:48.389Z,58.38
2022-09-25T18:34:16.002Z,58.79
2022-09-25T18:36:43.882Z,58.42
2022-09-25T18:39:13.877Z,58.66
2022-09-25T18:41:44.845Z,58.86
2022-09-25T18:44:13.278Z,58.72
2022-09-25T18:46:40.809Z,57.83
2022-09-25T18:49:08.789Z,57.95
2022-09-25T18:51:36.515Z,58.29
2022-09-25T18:54:04.126Z,58.16
2022-09-25T18:56:34.544Z,58.13
2022-09-25T18:59:04.021Z,57.90
2022-09-25T19:01:31.510Z,57.45
2022-09-25T19:03:59.004Z,57.40
2022-09-25T19:06:26.503Z,57.77
2022-09-25T19:08:56.021Z,58.49
2022-09-25T19:11:27.603Z,58.62
2022-09-25T19:13:56.591Z,59.13
2022-09-25T19:16:24.273Z,58.73
2022-09-25T19:18:51.826Z,59.37
2022-09-25T19:21:22.942Z,59.14
2022-09-25T19:23:50.473Z,59.51
2022-09-25T19:26:19.817Z,59.33
2022-09-25T19:28:48.084Z,58.97
2022-09-25T19:31:19.492Z,59.64
2022-09-25T19:33:46.960Z,59.01
2022-09-25T19:36:15.696Z,61.19
2022-09-25T19:38:43.739Z,60.50
2022-09-25T19:41:17.861Z,58.94
2022-09-25T19:43:45.540Z,59.64
2022-09-25T19:46:14.658Z,60.40
2022-09-25T19:48:43.793Z,59.09
2022-09-25T19:51:11.251Z,60.54
2022-09-25T19:53:40.403Z,59.48
2022-09-25T19:56:08.025Z,59.24
2022-09-25T19:58:36.409Z,59.96
2022-09-25T20:01:13.812Z,58.98
2022-09-25T20:03:42.815Z,59.25
2022-09-25T20:06:10.239Z,59.77
2022-09-25T20:08:37.838Z,59.38
2022-09-25T20:11:14.764Z,59.89
2022-09-25T20:13:42.242Z,58.72
2022-09-25T20:16:10.949Z,58.44
2022-09-25T20:18:38.512Z,58.61
2022-09-25T20:21:06.330Z,58.06
2022-09-25T20:23:34.453Z,58.14
2022-09-25T20:26:12.136Z,57.64
2022-09-25T20:28:40.002Z,57.79
2022-09-25T20:31:09.999Z,57.66
2022-09-25T20:33:38.732Z,57.92
2022-09-25T20:36:06.739Z,58.27
2022-09-25T20:38:36.122Z,58.67
2022-09-25T20:41:04.239Z,58.55
2022-09-25T20:43:32.060Z,58.66
2022-09-25T20:46:01.157Z,58.43
2022-09-25T20:48:28.622Z,59.41
2022-09-25T20:50:56.037Z,59.66
2022-09-25T20:53:23.834Z,60.25
2022-09-25T20:55:51.577Z,60.31
2022-09-25T20:58:19.273Z,60.78
2022-09-25T21:00:47.011Z,61.21
2022-09-25T21:03:14.351Z,61.49
2022-09-25T21:05:43.525Z,60.69
2022-09-25T21:08:11.535Z,60.62
2022-09-25T21:10:40.718Z,60.71
2022-09-25T21:13:08.910Z,61.15
2022-09-25T21:15:37.844Z,61.46
2022-09-25T21:18:05.423Z,61.02
2022-09-25T21:20:34.941Z,62.00
2022-09-25T21:23:02.384Z,61.35
2022-09-25T21:25:29.921Z,61.56
2022-09-25T21:27:57.597Z,61.09
2022-09-25T21:30:25.791Z,61.22
2022-09-25T21:32:54.426Z,62.06
2022-09-25T21:35:21.753Z,61.97
2022-09-25T21:37:49.503Z,61.46
2022-09-25T21:40:17.148Z,61.46
2022-09-25T21:42:44.504Z,61.74
2022-09-25T21:45:12.016Z,62.13
2022-09-25T21:47:39.467Z,61.74
2022-09-25T21:50:07.303Z,61.57
2022-09-25T21:52:35.001Z,61.27
2022-09-25T21:55:02.263Z,61.19
2022-09-25T21:57:31.357Z,61.62
2022-09-25T21:59:58.891Z,62.09
2022-09-25T22:02:28.968Z,62.32
2022-09-25T22:04:56.429Z,62.45
2022-09-25T22:07:24.082Z,62.43
2022-09-25T22:09:52.756Z,62.47
2022-09-25T22:12:20.011Z,62.17
2022-09-25T22:14:47.323Z,63.05
2022-09-25T22:17:14.925Z,62.13
2022-09-25T22:19:42.501Z,62.75
2022-09-25T22:22:09.794Z,63.07
2022-09-25T22:24:38.095Z,63.37
2022-09-25T22:27:05.745Z,63.50
2022-09-25T22:29:35.173Z,64.29
2022-09-25T22:32:02.857Z,64.44
2022-09-25T22:34:30.361Z,64.68
2022-09-25T22:37:00.068Z,65.28
2022-09-25T22:39:28.318Z,65.87
2022-09-25T22:41:56.125Z,66.21
2022-09-25T22:44:23.798Z,66.21
2022-09-25T22:46:51.356Z,66.44
2022-09-25T22:49:18.786Z,66.17
2022-09-25T22:51:46.197Z,67.79
2022-09-25T22:54:16.907Z,68.01
2022-09-25T22:56:44.607Z,68.49
2022-09-25T22:59:12.940Z,68.03
2022-09-25T23:01:42.845Z,68.83
2022-09-25T23:04:11.365Z,68.26
2022-09-25T23:06:39.816Z,69.38
2022-09-25T23:09:08.112Z,69.87
2022-09-25T23:11:38.567Z,69.25
2022-09-25T23:14:09.862Z,69.94
2022-09-25T23:16:38.082Z,69.59
2022-09-25T23:19:05.595Z,70.46
2022-09-25T23:21:33.237Z,70.42
2022-09-25T23:24:02.864Z,70.24
2022-09-25T23:26:30.435Z,70.36
2022-09-25T23:28:59.170Z,70.52
2022-09-25T23:31:26.948Z,69.76
2022-09-25T23:33:54.308Z,70.06
2022-09-25T23:36:23.549Z,69.96
2022-09-25T23:38:51.999Z,69.44
2022-09-25T23:41:23.466Z,69.51
2022-09-25T23:43:51.118Z,70.55
2022-09-25T23:46:18.946Z,70.35
2022-09-25T23:48:46.705Z,70.30
2022-09-25T23:51:14.628Z,70.38
2022-09-25T23:53:42.620Z,70.07
2022-09-25T23:56:11.809Z,70.76
2022-09-25T23:58:39.439Z,70.37
